createdAt,value
2018-10-09T00:00:25.750Z,9.47
2018-10-09T00:02:54.803Z,9.20
2018-10-09T00:05:23.782Z,8.30
2018-10-09T00:07:52.816Z,11.17
2018-10-09T00:10:21.866Z,11.47
2018-10-09T00:12:50.869Z,10.43
2018-10-09T00:15:19.878Z,12.13
2018-10-09T00:17:48.862Z,8.73
2018-10-09T00:20:19.662Z,8.93
2018-10-09T00:22:48.688Z,8.43
2018-10-09T00:25:17.711Z,9.63
2018-10-09T00:27:46.691Z,8.17
2018-10-09T00:30:15.714Z,8.53
2018-10-09T00:32:44.710Z,8.97
2018-10-09T00:35:13.795Z,9.00
2018-10-09T00:37:42.836Z,7.37
2018-10-09T00:40:11.943Z,8.93
2018-10-09T00:42:41.001Z,8.70
2018-10-09T00:45:10.034Z,8.43
2018-10-09T00:47:39.099Z,9.47
2018-10-09T00:50:08.538Z,8.87
2018-10-09T00:52:37.574Z,7.90
2018-10-09T00:55:07.065Z,7.83
2018-10-09T00:57:36.099Z,7.10
2018-10-09T01:00:05.477Z,7.93
2018-10-09T01:02:34.483Z,10.67
2018-10-09T01:05:03.541Z,9.13
2018-10-09T01:07:32.579Z,11.07
2018-10-09T01:10:01.571Z,8.47
2018-10-09T01:12:30.600Z,7.53
2018-10-09T01:14:59.599Z,8.63
2018-10-09T01:17:28.591Z,8.23
2018-10-09T01:19:57.623Z,7.30
2018-10-09T01:22:26.673Z,7.47
2018-10-09T01:24:55.711Z,6.97
2018-10-09T01:27:24.744Z,7.43
2018-10-09T01:29:53.765Z,7.83
2018-10-09T01:32:22.783Z,9.93
2018-10-09T01:34:51.780Z,9.47
2018-10-09T01:37:20.816Z,8.90
2018-10-09T01:39:49.998Z,9.73
2018-10-09T01:42:18.996Z,11.90
2018-10-09T01:44:48.013Z,10.63
2018-10-09T01:47:17.016Z,11.90
2018-10-09T01:49:46.040Z,10.50
2018-10-09T01:52:15.030Z,12.33
2018-10-09T01:54:44.035Z,10.20
2018-10-09T01:57:13.041Z,11.27
2018-10-09T01:59:42.028Z,11.13
2018-10-09T02:02:11.018Z,10.47
2018-10-09T02:04:40.062Z,10.37
2018-10-09T02:07:09.264Z,13.07
2018-10-09T02:09:38.282Z,10.77
2018-10-09T02:12:07.334Z,11.07
2018-10-09T02:14:36.334Z,14.80
2018-10-09T02:17:05.535Z,11.13
2018-10-09T02:19:34.527Z,10.97
2018-10-09T02:22:03.530Z,14.03
2018-10-09T02:24:32.579Z,9.93
2018-10-09T02:27:01.576Z,10.37
2018-10-09T02:29:30.576Z,11.33
2018-10-09T02:31:59.582Z,11.57
2018-10-09T02:34:28.602Z,9.90
2018-10-09T02:36:57.596Z,9.87
2018-10-09T02:39:26.589Z,9.43
2018-10-09T02:41:55.588Z,10.10
2018-10-09T02:44:24.628Z,9.23
2018-10-09T02:46:53.645Z,11.70
2018-10-09T02:49:22.662Z,9.83
2018-10-09T02:51:51.667Z,12.93
2018-10-09T02:54:20.650Z,12.20
2018-10-09T02:56:49.701Z,10.93
2018-10-09T02:59:18.695Z,11.53
2018-10-09T03:01:47.694Z,11.03
2018-10-09T03:04:16.779Z,11.23
2018-10-09T03:06:45.835Z,10.83
2018-10-09T03:09:14.892Z,11.53
2018-10-09T03:11:43.889Z,10.37
2018-10-09T03:14:12.877Z,10.50
2018-10-09T03:16:41.907Z,12.70
2018-10-09T03:19:11.165Z,11.67
2018-10-09T03:21:40.149Z,12.13
2018-10-09T03:24:09.153Z,11.70
2018-10-09T03:26:38.183Z,13.43
2018-10-09T03:29:07.431Z,10.90
2018-10-09T03:31:36.532Z,13.60
2018-10-09T03:34:05.685Z,13.43
2018-10-09T03:36:34.739Z,14.20
2018-10-09T03:39:04.650Z,14.13
2018-10-09T03:41:33.647Z,15.30
2018-10-09T03:44:02.707Z,13.07
2018-10-09T03:46:31.730Z,13.83
2018-10-09T03:49:00.768Z,16.77
2018-10-09T03:51:29.821Z,13.13
2018-10-09T03:53:58.843Z,13.07
2018-10-09T03:56:27.856Z,13.80
2018-10-09T03:58:56.843Z,12.10
2018-10-09T04:01:26.775Z,12.73
2018-10-09T04:03:55.792Z,12.07
2018-10-09T04:06:24.852Z,13.40
2018-10-09T04:08:53.938Z,14.50
2018-10-09T04:11:22.924Z,17.33
2018-10-09T04:13:51.961Z,13.70
2018-10-09T04:16:20.975Z,14.07
2018-10-09T04:18:50.036Z,12.67
2018-10-09T04:21:19.065Z,13.70
2018-10-09T04:23:48.063Z,15.07
2018-10-09T04:26:17.093Z,15.00
2018-10-09T04:28:46.107Z,13.67
2018-10-09T04:31:15.144Z,11.90
2018-10-09T04:33:44.147Z,9.97
2018-10-09T04:36:13.170Z,14.33
2018-10-09T04:38:42.182Z,14.80
2018-10-09T04:41:11.213Z,11.83
2018-10-09T04:43:40.243Z,10.80
2018-10-09T04:46:09.253Z,14.43
2018-10-09T04:48:38.245Z,9.27
2018-10-09T04:51:07.237Z,11.13
2018-10-09T04:53:36.225Z,10.93
2018-10-09T04:56:05.239Z,11.40
2018-10-09T04:58:34.243Z,9.83
2018-10-09T05:01:03.251Z,10.70
2018-10-09T05:03:32.229Z,11.97
2018-10-09T05:06:01.398Z,11.07
2018-10-09T05:08:30.396Z,11.43
2018-10-09T05:10:59.415Z,12.00
2018-10-09T05:13:28.418Z,11.30
2018-10-09T05:15:57.454Z,16.57
2018-10-09T05:18:26.446Z,14.87
2018-10-09T05:20:55.531Z,13.20
2018-10-09T05:23:24.524Z,13.17
2018-10-09T05:25:53.710Z,15.30
2018-10-09T05:28:22.700Z,13.70
2018-10-09T05:30:51.788Z,14.57
2018-10-09T05:33:20.806Z,15.37
2018-10-09T05:35:49.843Z,12.07
2018-10-09T05:38:18.841Z,12.13
2018-10-09T05:40:47.847Z,12.67
2018-10-09T05:43:16.932Z,12.10
2018-10-09T05:45:45.921Z,12.50
2018-10-09T05:48:14.956Z,15.33
2018-10-09T05:50:43.989Z,13.83
2018-10-09T05:53:12.983Z,15.83
2018-10-09T05:55:41.982Z,19.53
2018-10-09T05:58:11.041Z,28.77
2018-10-09T06:00:40.047Z,27.20
2018-10-09T06:03:09.063Z,19.63
2018-10-09T06:05:38.082Z,18.90
2018-10-09T06:08:07.155Z,20.23
2018-10-09T06:10:36.461Z,15.77
2018-10-09T06:13:06.001Z,15.20
2018-10-09T06:15:35.100Z,15.13
2018-10-09T06:18:04.054Z,14.40
2018-10-09T06:20:33.057Z,15.57
2018-10-09T07:41:10.672Z,11.10
2018-10-09T07:43:42.354Z,13.30
2018-10-09T07:46:11.821Z,13.37
2018-10-09T07:48:41.310Z,13.27
2018-10-09T07:51:16.500Z,14.93
2018-10-09T07:53:45.989Z,12.50
2018-10-09T07:56:16.535Z,13.37
2018-10-09T07:58:46.163Z,14.23
2018-10-09T08:08:25.641Z,18.50
2018-10-09T08:10:55.222Z,19.47
2018-10-09T08:13:24.702Z,18.17
2018-10-09T08:15:54.289Z,17.87
2018-10-09T08:18:23.805Z,17.23
2018-10-09T08:23:43.153Z,19.07
2018-10-09T08:26:13.003Z,20.87
2018-10-09T08:28:42.938Z,24.67
2018-10-09T08:31:12.749Z,23.70
2018-10-09T08:33:43.823Z,21.10
2018-10-09T08:36:13.747Z,25.40
2018-10-09T08:38:43.596Z,22.73
2018-10-09T08:41:13.548Z,25.00
2018-10-09T08:43:43.245Z,23.47
2018-10-09T08:46:13.111Z,22.20
2018-10-09T08:48:43.269Z,25.27
2018-10-09T08:51:13.158Z,20.17
2018-10-09T08:53:43.711Z,19.50
2018-10-09T08:56:13.533Z,15.37
2018-10-09T08:58:43.688Z,16.77
2018-10-09T09:01:13.374Z,14.43
2018-10-09T09:03:45.108Z,15.03
2018-10-09T09:06:16.932Z,16.23
2018-10-09T09:08:46.783Z,14.65
2018-10-09T09:11:16.702Z,15.30
2018-10-09T09:13:47.965Z,13.83
2018-10-09T09:16:17.702Z,15.65
2018-10-09T09:18:47.730Z,16.42
2018-10-09T09:21:17.516Z,17.52
2018-10-09T09:23:47.378Z,16.57
2018-10-09T09:26:17.274Z,14.33
2018-10-09T09:28:47.367Z,17.52
2018-10-09T09:31:17.405Z,16.27
2018-10-09T09:33:47.846Z,16.20
2018-10-09T09:36:17.659Z,16.70
2018-10-09T09:38:47.140Z,18.05
2018-10-09T09:41:17.076Z,15.20
2018-10-09T09:43:48.165Z,16.75
2018-10-09T09:46:18.462Z,15.45
2018-10-09T09:48:48.175Z,11.88
2018-10-09T09:51:20.127Z,16.30
2018-10-09T09:53:49.897Z,15.10
2018-10-09T09:56:21.799Z,14.10
2018-10-09T09:58:51.736Z,13.15
2018-10-09T10:01:25.352Z,15.53
2018-10-09T10:03:56.611Z,15.03
2018-10-09T10:06:27.724Z,15.55
2018-10-09T10:08:57.361Z,13.53
2018-10-09T10:11:27.279Z,12.33
2018-10-09T10:13:57.149Z,14.18
2018-10-09T10:16:29.003Z,12.58
2018-10-09T10:18:58.763Z,11.53
2018-10-09T10:21:30.204Z,13.95
2018-10-09T10:24:01.183Z,13.20
2018-10-09T10:26:32.129Z,10.55
2018-10-09T10:29:02.179Z,14.60
2018-10-09T10:31:31.891Z,11.28
2018-10-09T10:34:01.805Z,14.68
2018-10-09T10:36:32.530Z,15.75
2018-10-09T10:39:03.173Z,14.47
2018-10-09T10:41:32.979Z,13.78
2018-10-09T10:44:03.349Z,12.03
2018-10-09T10:46:40.041Z,10.88
2018-10-09T10:49:12.118Z,14.70
2018-10-09T10:51:41.934Z,13.68
2018-10-09T10:54:11.870Z,15.48
2018-10-09T10:56:42.063Z,10.93
2018-10-09T10:59:11.913Z,15.18
2018-10-09T11:01:42.009Z,13.80
2018-10-09T11:04:11.869Z,13.38
2018-10-09T11:06:54.679Z,13.70
2018-10-09T11:09:24.562Z,13.43
2018-10-09T11:11:53.947Z,13.13
2018-10-09T11:14:23.324Z,11.15
2018-10-09T11:16:52.813Z,13.93
2018-10-09T11:19:23.575Z,13.75
2018-10-09T11:21:52.971Z,11.20
2018-10-09T11:24:23.934Z,9.45
2018-10-09T11:26:53.335Z,10.03
2018-10-09T11:29:22.729Z,14.23
2018-10-09T11:31:52.172Z,10.72
2018-10-09T11:34:21.620Z,11.95
2018-10-09T11:36:51.466Z,12.60
2018-10-09T11:39:21.316Z,11.75
2018-10-09T11:41:50.937Z,10.58
2018-10-09T11:44:20.293Z,12.37
2018-10-09T11:46:50.943Z,12.15
2018-10-09T11:49:20.326Z,12.28
2018-10-09T11:51:50.685Z,13.75
2018-10-09T11:54:20.046Z,14.00
2018-10-09T11:56:49.585Z,11.95
2018-10-09T11:59:19.014Z,12.85
2018-10-09T12:01:49.240Z,12.60
2018-10-09T12:04:18.598Z,14.20
2018-10-09T12:06:48.032Z,12.33
2018-10-09T12:09:17.456Z,12.30
2018-10-09T12:11:46.823Z,11.33
2018-10-09T12:14:16.287Z,12.17
2018-10-09T12:16:45.667Z,13.57
2018-10-09T12:19:15.059Z,9.67
2018-10-09T12:21:45.386Z,10.40
2018-10-09T12:24:15.228Z,10.23
2018-10-09T12:26:44.604Z,8.83
2018-10-09T12:29:15.112Z,7.87
2018-10-09T12:31:45.333Z,9.90
2018-10-09T12:34:16.143Z,10.63
2018-10-09T12:36:45.490Z,8.80
2018-10-09T12:39:15.778Z,9.97
2018-10-09T12:41:45.114Z,9.03
2018-10-09T12:44:14.480Z,9.33
2018-10-09T12:46:43.798Z,9.57
2018-10-09T12:49:13.235Z,7.10
2018-10-09T12:51:42.640Z,8.33
2018-10-09T12:54:12.066Z,12.00
2018-10-09T12:56:41.429Z,6.73
2018-10-09T12:59:10.887Z,8.97
2018-10-09T13:01:40.212Z,6.53
2018-10-09T13:04:09.587Z,8.63
2018-10-09T13:06:38.979Z,7.30
2018-10-09T13:09:10.640Z,5.77
2018-10-09T13:11:40.929Z,6.23
2018-10-09T13:14:10.400Z,6.80
2018-10-09T13:16:39.753Z,7.33
2018-10-09T13:19:09.092Z,6.67
2018-10-09T13:21:39.248Z,5.90
2018-10-09T13:24:08.589Z,5.93
2018-10-09T13:26:39.460Z,4.90
2018-10-09T13:29:10.362Z,7.40
2018-10-09T13:31:39.723Z,8.67
2018-10-09T13:34:09.199Z,5.13
2018-10-09T13:36:38.503Z,6.53
2018-10-09T13:39:09.867Z,6.87
2018-10-09T13:41:39.374Z,5.37
2018-10-09T13:44:12.902Z,6.83
2018-10-09T13:46:42.240Z,7.70
2018-10-09T13:49:12.511Z,5.53
2018-10-09T13:51:42.741Z,5.80
2018-10-09T13:54:12.297Z,7.00
2018-10-09T13:56:42.763Z,4.40
2018-10-09T13:59:12.185Z,4.47
2018-10-09T14:01:41.611Z,5.90
2018-10-09T14:04:10.980Z,6.70
2018-10-09T14:06:40.771Z,4.53
2018-10-09T14:09:11.707Z,5.63
2018-10-09T14:11:41.173Z,6.03
2018-10-09T14:14:10.629Z,7.20
2018-10-09T14:16:40.737Z,7.33
2018-10-09T14:19:10.095Z,7.10
2018-10-09T14:21:39.487Z,5.23
2018-10-09T14:24:08.857Z,5.17
2018-10-09T14:26:38.549Z,7.20
2018-10-09T14:29:08.051Z,5.83
2018-10-09T14:31:37.381Z,5.77
2018-10-09T14:34:07.040Z,7.87
2018-10-09T14:36:36.387Z,5.10
2018-10-09T14:39:07.511Z,7.40
2018-10-09T14:41:37.125Z,8.53
2018-10-09T14:44:06.641Z,7.27
2018-10-09T14:46:35.903Z,5.60
2018-10-09T14:49:04.958Z,5.80
2018-10-09T14:51:34.001Z,6.80
2018-10-09T14:54:03.219Z,5.33
2018-10-09T14:56:33.084Z,7.87
2018-10-09T14:59:03.088Z,7.30
2018-10-09T15:01:32.151Z,10.30
2018-10-09T15:04:01.286Z,7.70
2018-10-09T15:06:34.377Z,9.03
2018-10-09T15:09:06.754Z,6.70
2018-10-09T15:11:36.470Z,7.10
2018-10-09T15:14:13.528Z,9.77
2018-10-09T15:16:43.112Z,7.07
2018-10-09T15:19:16.506Z,8.00
2018-10-09T15:21:45.781Z,6.90
2018-10-09T15:24:15.509Z,6.77
2018-10-09T15:26:45.224Z,9.90
2018-10-09T15:29:15.299Z,7.27
2018-10-09T15:31:45.138Z,9.27
2018-10-09T15:34:15.074Z,8.33
2018-10-09T15:36:44.171Z,9.87
2018-10-09T15:39:14.641Z,7.77
2018-10-09T15:41:45.169Z,7.63
2018-10-09T15:44:14.272Z,7.60
2018-10-09T15:46:43.333Z,7.27
2018-10-09T15:49:12.902Z,7.30
2018-10-09T15:51:41.938Z,5.63
2018-10-09T15:54:10.983Z,5.70
2018-10-09T15:56:40.149Z,5.57
2018-10-09T15:59:09.161Z,7.33
2018-10-09T16:01:38.564Z,7.53
2018-10-09T16:04:07.723Z,7.87
2018-10-09T16:06:37.747Z,6.20
2018-10-09T16:09:09.950Z,6.43
2018-10-09T16:11:38.965Z,6.83
2018-10-09T16:14:09.435Z,5.17
2018-10-09T16:16:38.449Z,6.40
2018-10-09T16:19:07.706Z,7.93
2018-10-09T16:21:36.763Z,8.10
2018-10-09T16:24:05.853Z,5.73
2018-10-09T16:26:35.061Z,5.60
2018-10-09T16:29:06.441Z,6.13
2018-10-09T16:31:35.529Z,6.27
2018-10-09T16:34:05.848Z,8.17
2018-10-09T16:36:34.931Z,5.93
2018-10-09T16:39:09.320Z,6.40
2018-10-09T16:41:39.012Z,7.70
2018-10-09T16:44:08.042Z,9.83
2018-10-09T16:46:37.302Z,7.83
2018-10-09T16:49:06.358Z,9.83
2018-10-09T16:51:35.376Z,7.83
2018-10-09T16:54:04.484Z,7.43
2018-10-09T16:56:34.971Z,7.63
2018-10-09T16:59:04.997Z,7.87
2018-10-09T17:01:34.030Z,8.20
2018-10-09T17:04:03.104Z,10.53
2018-10-09T17:06:32.191Z,12.00
2018-10-09T17:09:01.196Z,9.10
2018-10-09T17:11:30.621Z,8.60
2018-10-09T17:13:59.824Z,6.60
2018-10-09T17:16:29.288Z,6.33
2018-10-09T17:18:58.328Z,5.77
2018-10-09T17:21:27.343Z,5.87
2018-10-09T17:23:56.344Z,10.80
2018-10-09T17:26:26.776Z,7.97
2018-10-09T17:28:55.904Z,5.60
2018-10-09T17:31:24.955Z,6.20
2018-10-09T17:33:55.106Z,6.57
2018-10-09T17:36:24.129Z,7.03
2018-10-09T17:38:53.677Z,8.00
2018-10-09T17:41:22.737Z,8.67
2018-10-09T17:43:51.764Z,9.40
2018-10-09T17:46:20.969Z,11.20
2018-10-09T17:48:50.772Z,15.97
2018-10-09T17:51:20.587Z,15.43
2018-10-09T17:53:51.364Z,30.43
2018-10-09T17:56:22.095Z,30.57
2018-10-09T17:58:53.473Z,65.77
2018-10-09T18:01:23.148Z,88.43
2018-10-09T18:03:52.646Z,66.83
2018-10-09T18:06:22.472Z,60.10
2018-10-09T18:08:51.529Z,64.73
2018-10-09T18:11:22.136Z,46.23
2018-10-09T18:13:51.256Z,23.73
2018-10-09T18:16:22.892Z,22.13
2018-10-09T18:18:51.982Z,14.37
2018-10-09T18:21:21.820Z,18.20
2018-10-09T18:23:51.821Z,16.77
2018-10-09T18:26:20.872Z,32.90
2018-10-09T18:28:50.461Z,31.60
2018-10-09T18:31:19.505Z,36.93
2018-10-09T18:33:48.557Z,35.23
2018-10-09T18:36:18.107Z,29.20
2018-10-09T18:38:47.297Z,18.03
2018-10-09T18:41:16.370Z,14.67
2018-10-09T18:43:45.391Z,14.97
2018-10-09T18:46:16.269Z,18.33
2018-10-09T18:48:45.311Z,16.63
2018-10-09T18:51:14.343Z,15.83
2018-10-09T18:53:44.715Z,13.00
2018-10-09T18:56:14.495Z,13.93
2018-10-09T18:58:43.843Z,11.20
2018-10-09T19:01:15.390Z,10.63
2018-10-09T19:03:44.425Z,10.10
2018-10-09T19:06:13.456Z,9.83
2018-10-09T19:08:42.499Z,10.73
2018-10-09T19:11:11.627Z,9.63
2018-10-09T19:13:40.652Z,9.70
2018-10-09T19:16:09.697Z,11.80
2018-10-09T19:18:38.811Z,9.57
2018-10-09T19:21:07.852Z,10.50
2018-10-09T19:23:38.176Z,10.93
2018-10-09T19:26:07.239Z,11.70
2018-10-09T19:28:36.267Z,11.63
2018-10-09T19:31:05.415Z,11.40
2018-10-09T19:33:34.754Z,12.17
2018-10-09T19:36:03.885Z,12.17
2018-10-09T19:38:34.156Z,10.57
2018-10-09T19:41:03.213Z,12.23
2018-10-09T19:43:33.280Z,11.23
2018-10-09T19:46:02.374Z,11.00
2018-10-09T19:48:31.447Z,10.80
2018-10-09T19:51:00.587Z,10.80
2018-10-09T19:53:29.500Z,13.97
2018-10-09T19:56:00.149Z,10.93
2018-10-09T19:58:30.528Z,10.93
2018-10-09T20:01:01.912Z,11.07
2018-10-09T20:03:33.290Z,12.43
2018-10-09T20:06:02.822Z,11.47
2018-10-09T20:08:31.932Z,12.73
2018-10-09T20:11:00.987Z,11.60
2018-10-09T20:13:30.140Z,13.60
2018-10-09T20:15:59.204Z,12.47
2018-10-09T20:18:28.486Z,12.00
2018-10-09T20:20:59.514Z,12.17
2018-10-09T20:23:28.574Z,11.70
2018-10-09T20:25:57.631Z,14.40
2018-10-09T20:28:26.657Z,13.17
2018-10-09T20:30:55.693Z,13.47
2018-10-09T20:33:24.753Z,15.00
2018-10-09T20:35:53.784Z,12.60
2018-10-09T20:38:23.321Z,15.17
2018-10-09T20:40:52.350Z,14.93
2018-10-09T20:43:22.444Z,14.37
2018-10-09T20:45:51.465Z,14.17
2018-10-09T20:48:20.616Z,17.10
2018-10-09T20:50:50.322Z,13.63
2018-10-09T20:53:19.586Z,16.57
2018-10-09T20:55:48.709Z,14.27
2018-10-09T20:58:17.748Z,15.73
2018-10-09T21:00:46.765Z,15.47
2018-10-09T21:03:15.789Z,15.17
2018-10-09T21:05:44.928Z,15.67
2018-10-09T21:08:14.595Z,14.70
2018-10-09T21:10:45.768Z,13.37
2018-10-09T21:13:16.391Z,13.60
2018-10-09T21:15:46.615Z,14.63
2018-10-09T21:18:15.804Z,14.93
2018-10-09T21:20:44.847Z,16.33
2018-10-09T21:23:13.883Z,14.50
2018-10-09T21:25:42.897Z,15.53
2018-10-09T21:28:11.960Z,17.47
2018-10-09T21:30:40.995Z,14.97
2018-10-09T21:33:11.421Z,17.60
2018-10-09T21:35:40.447Z,18.23
2018-10-09T21:38:10.696Z,18.37
2018-10-09T21:40:39.767Z,14.60
2018-10-09T21:43:08.778Z,15.73
2018-10-09T21:45:37.808Z,18.17
2018-10-09T21:48:06.866Z,18.10
2018-10-09T21:50:35.895Z,18.73
2018-10-09T21:53:04.925Z,21.27
2018-10-09T21:55:34.150Z,18.47
2018-10-09T21:58:03.213Z,17.23
2018-10-09T22:00:36.483Z,17.13
2018-10-09T22:03:05.523Z,19.50
2018-10-09T22:05:35.459Z,17.20
2018-10-09T22:08:04.553Z,18.13
2018-10-09T22:10:33.669Z,19.33
2018-10-09T22:13:03.680Z,23.50
2018-10-09T22:15:32.713Z,20.97
2018-10-09T22:18:01.741Z,17.97
2018-10-09T22:20:30.780Z,19.37
2018-10-09T22:22:59.834Z,21.53
2018-10-09T22:25:29.793Z,19.77
2018-10-09T22:27:58.813Z,21.87
2018-10-09T22:30:27.811Z,21.87
2018-10-09T22:32:56.867Z,22.00
2018-10-09T22:35:27.068Z,22.13
2018-10-09T22:37:56.120Z,21.37
2018-10-09T22:40:25.133Z,23.60
2018-10-09T22:42:55.478Z,22.30
2018-10-09T22:45:24.533Z,20.90
2018-10-09T22:47:53.609Z,26.10
2018-10-09T22:50:22.637Z,23.83
2018-10-09T22:52:51.647Z,21.93
2018-10-09T22:55:20.674Z,23.23
2018-10-09T22:57:49.718Z,24.30
2018-10-09T23:00:18.993Z,25.83
2018-10-09T23:02:48.029Z,22.90
2018-10-09T23:05:17.067Z,27.20
2018-10-09T23:07:47.084Z,23.87
2018-10-09T23:10:16.157Z,24.83
2018-10-09T23:12:45.141Z,24.87
2018-10-09T23:15:14.146Z,27.87
2018-10-09T23:17:43.229Z,25.47
2018-10-09T23:20:12.275Z,26.20
2018-10-09T23:22:41.304Z,27.57
2018-10-09T23:25:10.682Z,26.57
2018-10-09T23:27:39.736Z,29.87
2018-10-09T23:30:09.592Z,26.47
2018-10-09T23:32:38.621Z,27.30
2018-10-09T23:35:07.757Z,29.73
2018-10-09T23:37:36.772Z,27.77
2018-10-09T23:40:05.886Z,26.43
2018-10-09T23:42:34.917Z,27.20
2018-10-09T23:45:04.035Z,26.40
2018-10-09T23:47:33.043Z,28.43
2018-10-09T23:50:02.150Z,27.83
2018-10-09T23:52:31.244Z,28.27
2018-10-09T23:55:00.260Z,26.90
2018-10-09T23:57:29.377Z,26.63
2018-10-09T23:59:58.337Z,33.57
